createdAt,value
2017-10-05T00:00:57.151Z,8.73
2017-10-05T00:03:24.850Z,8.66
2017-10-05T00:05:52.659Z,8.68
2017-10-05T00:08:20.313Z,8.62
2017-10-05T00:10:48.013Z,8.70
2017-10-05T00:13:15.670Z,8.57
2017-10-05T00:15:43.618Z,8.50
2017-10-05T00:18:11.290Z,8.57
2017-10-05T00:20:38.953Z,8.57
2017-10-05T00:23:06.666Z,8.57
2017-10-05T00:25:34.389Z,8.55
2017-10-05T00:28:02.192Z,8.41
2017-10-05T00:33:02.837Z,8.25
2017-10-05T00:35:30.603Z,8.44
2017-10-05T00:37:58.281Z,8.37
2017-10-05T00:40:26.028Z,8.38
2017-10-05T00:42:53.814Z,8.32
2017-10-05T00:45:21.527Z,8.38
2017-10-05T00:47:49.276Z,8.26
2017-10-05T00:50:17.107Z,8.26
2017-10-05T00:52:44.838Z,8.32
2017-10-05T00:55:12.644Z,8.25
2017-10-05T00:57:40.453Z,8.30
2017-10-05T01:00:08.643Z,8.35
2017-10-05T01:02:36.322Z,8.38
2017-10-05T01:05:04.037Z,8.29
2017-10-05T01:07:31.773Z,8.33
2017-10-05T01:09:59.444Z,8.33
2017-10-05T01:12:27.303Z,8.45
2017-10-05T01:14:55.003Z,8.47
2017-10-05T01:17:22.690Z,8.49
2017-10-05T01:19:50.649Z,8.39
2017-10-05T01:22:18.400Z,8.26
2017-10-05T01:24:46.169Z,8.31
2017-10-05T01:27:14.009Z,8.40
2017-10-05T01:29:41.740Z,8.41
2017-10-05T01:32:09.456Z,8.31
2017-10-05T01:34:37.127Z,8.33
2017-10-05T01:37:04.986Z,8.36
2017-10-05T01:39:32.708Z,8.45
2017-10-05T01:42:00.393Z,8.35
2017-10-05T01:44:29.115Z,8.28
2017-10-05T01:46:56.786Z,8.32
2017-10-05T01:49:24.552Z,8.36
2017-10-05T01:51:52.252Z,8.28
2017-10-05T01:54:20.032Z,8.17
2017-10-05T01:56:47.951Z,8.20
2017-10-05T01:59:15.681Z,8.14
2017-10-05T02:01:43.453Z,8.21
2017-10-05T02:04:11.169Z,8.30
2017-10-05T02:06:38.899Z,8.28
2017-10-05T02:09:06.624Z,8.31
2017-10-05T02:11:34.461Z,8.32
2017-10-05T02:14:02.173Z,8.37
2017-10-05T02:16:29.891Z,8.41
2017-10-05T02:18:57.611Z,8.34
2017-10-05T02:21:25.292Z,8.23
2017-10-05T02:23:53.044Z,8.37
2017-10-05T02:26:20.725Z,8.35
2017-10-05T02:28:48.452Z,8.22
2017-10-05T02:31:16.096Z,8.18
2017-10-05T02:33:43.824Z,8.27
2017-10-05T02:36:11.501Z,8.21
2017-10-05T02:38:39.237Z,8.08
2017-10-05T02:41:06.959Z,7.95
2017-10-05T02:43:34.795Z,8.10
2017-10-05T02:46:02.453Z,8.14
2017-10-05T02:48:30.197Z,8.16
2017-10-05T02:50:58.015Z,8.21
2017-10-05T02:53:25.710Z,8.23
2017-10-05T02:55:53.409Z,8.38
2017-10-05T02:58:21.260Z,8.22
2017-10-05T03:00:48.950Z,8.14
2017-10-05T03:03:16.806Z,8.10
2017-10-05T03:05:44.491Z,8.07
2017-10-05T03:08:12.319Z,8.12
2017-10-05T03:10:39.984Z,8.17
2017-10-05T03:13:07.698Z,8.20
2017-10-05T03:15:35.417Z,8.24
2017-10-05T03:18:03.093Z,8.24
2017-10-05T03:20:30.816Z,8.21
2017-10-05T03:22:58.507Z,8.29
2017-10-05T03:25:26.234Z,8.07
2017-10-05T03:27:55.330Z,8.19
2017-10-05T03:30:23.003Z,8.08
2017-10-05T03:32:50.728Z,7.97
2017-10-05T03:35:18.493Z,7.90
2017-10-05T03:37:46.305Z,7.87
2017-10-05T03:40:14.005Z,7.86
2017-10-05T03:42:41.724Z,7.88
2017-10-05T03:45:09.510Z,7.95
2017-10-05T03:47:37.203Z,7.93
2017-10-05T03:50:04.904Z,7.92
2017-10-05T03:52:32.684Z,7.89
2017-10-05T03:55:00.439Z,7.90
2017-10-05T03:57:28.178Z,7.88
2017-10-05T03:59:55.988Z,7.94
2017-10-05T04:02:23.731Z,7.85
2017-10-05T04:04:51.464Z,7.81
2017-10-05T04:07:19.152Z,7.92
2017-10-05T04:09:46.888Z,7.82
2017-10-05T04:12:14.660Z,7.90
2017-10-05T04:14:42.359Z,7.96
2017-10-05T04:17:10.322Z,8.01
2017-10-05T04:19:38.003Z,8.14
2017-10-05T04:22:05.684Z,7.94
2017-10-05T04:24:33.469Z,7.91
2017-10-05T04:27:01.217Z,7.92
2017-10-05T04:29:28.922Z,7.96
2017-10-05T04:31:56.696Z,8.00
2017-10-05T04:34:24.417Z,7.96
2017-10-05T04:36:52.128Z,7.86
2017-10-05T04:39:19.836Z,7.88
2017-10-05T04:41:47.680Z,7.96
2017-10-05T04:44:15.420Z,7.95
2017-10-05T04:46:43.401Z,7.98
2017-10-05T04:49:11.270Z,7.93
2017-10-05T04:51:38.964Z,7.90
2017-10-05T04:54:06.754Z,7.90
2017-10-05T04:56:34.827Z,7.88
2017-10-05T04:59:02.559Z,7.81
2017-10-05T05:01:30.338Z,7.80
2017-10-05T05:03:58.133Z,7.86
2017-10-05T05:06:25.853Z,7.96
2017-10-05T05:08:53.690Z,7.91
2017-10-05T05:11:21.422Z,7.91
2017-10-05T05:13:49.137Z,7.97
2017-10-05T05:16:16.898Z,7.90
2017-10-05T05:18:44.597Z,7.88
2017-10-05T05:21:12.858Z,7.87
2017-10-05T05:23:40.579Z,8.02
2017-10-05T05:26:08.489Z,7.86
2017-10-05T05:28:36.223Z,7.80
2017-10-05T05:31:05.521Z,7.77
2017-10-05T05:33:33.476Z,7.66
2017-10-05T05:36:01.308Z,7.72
2017-10-05T05:38:29.028Z,7.75
2017-10-05T05:40:56.765Z,7.72
2017-10-05T05:43:24.523Z,7.85
2017-10-05T05:45:52.272Z,7.80
2017-10-05T05:48:20.840Z,7.89
2017-10-05T05:50:48.533Z,7.95
2017-10-05T05:53:16.282Z,7.93
2017-10-05T05:55:44.088Z,7.99
2017-10-05T05:58:11.840Z,8.11
2017-10-05T06:00:39.732Z,8.23
2017-10-05T06:03:07.519Z,8.30
2017-10-05T06:05:35.346Z,8.33
2017-10-05T06:08:03.054Z,8.43
2017-10-05T06:10:31.016Z,8.41
2017-10-05T06:12:58.827Z,8.50
2017-10-05T06:15:26.563Z,8.57
2017-10-05T06:17:55.027Z,8.74
2017-10-05T06:20:22.821Z,8.90
2017-10-05T06:22:50.588Z,9.01
2017-10-05T06:25:18.293Z,9.10
2017-10-05T06:27:46.044Z,9.28
2017-10-05T06:30:13.776Z,9.46
2017-10-05T06:32:41.544Z,9.53
2017-10-05T06:35:09.225Z,9.54
2017-10-05T06:37:36.923Z,9.41
2017-10-05T06:40:04.725Z,9.35
2017-10-05T06:42:32.421Z,9.47
2017-10-05T06:45:00.097Z,9.75
2017-10-05T06:47:28.010Z,9.88
2017-10-05T06:49:55.707Z,10.37
2017-10-05T06:52:23.412Z,10.64
2017-10-05T06:54:51.536Z,11.01
2017-10-05T06:57:19.633Z,11.22
2017-10-05T06:59:47.462Z,11.48
2017-10-05T07:02:15.168Z,11.54
2017-10-05T07:04:43.077Z,11.90
2017-10-05T07:07:10.821Z,12.18
2017-10-05T07:09:38.591Z,12.34
2017-10-05T07:12:06.352Z,12.47
2017-10-05T07:14:34.107Z,12.59
2017-10-05T07:17:01.868Z,12.65
2017-10-05T07:19:29.596Z,12.52
2017-10-05T07:21:57.344Z,12.54
2017-10-05T07:24:25.080Z,12.62
2017-10-05T07:26:52.810Z,12.62
2017-10-05T07:29:21.477Z,12.55
2017-10-05T07:31:49.617Z,12.61
2017-10-05T07:34:17.398Z,12.68
2017-10-05T07:36:45.197Z,12.61
2017-10-05T07:39:13.776Z,12.77
2017-10-05T07:41:41.536Z,12.82
2017-10-05T07:44:09.642Z,12.81
2017-10-05T07:46:37.385Z,12.92
2017-10-05T07:49:05.074Z,13.05
2017-10-05T07:51:32.835Z,13.23
2017-10-05T07:54:00.633Z,13.26
2017-10-05T07:56:28.700Z,13.58
2017-10-05T07:58:56.478Z,14.14
2017-10-05T08:01:24.209Z,14.78
2017-10-05T08:03:52.028Z,15.50
2017-10-05T08:06:19.781Z,16.10
2017-10-05T08:08:47.498Z,16.26
2017-10-05T08:11:15.300Z,16.70
2017-10-05T08:13:43.035Z,17.06
2017-10-05T08:16:10.902Z,17.25
2017-10-05T08:18:38.600Z,17.57
2017-10-05T08:21:06.290Z,17.70
2017-10-05T08:23:34.056Z,16.95
2017-10-05T08:26:01.779Z,16.67
2017-10-05T08:28:29.502Z,16.94
2017-10-05T08:30:57.260Z,17.24
2017-10-05T08:33:24.961Z,17.01
2017-10-05T08:35:52.860Z,17.34
2017-10-05T08:38:20.769Z,17.20
2017-10-05T08:40:48.462Z,17.37
2017-10-05T08:43:16.186Z,17.40
2017-10-05T08:45:43.885Z,17.27
2017-10-05T08:48:11.639Z,17.05
2017-10-05T08:50:39.368Z,16.68
2017-10-05T08:53:08.317Z,17.29
2017-10-05T08:55:36.103Z,16.66
2017-10-05T08:58:03.861Z,16.59
2017-10-05T09:00:31.563Z,16.18
2017-10-05T09:02:59.428Z,15.89
2017-10-05T09:05:27.536Z,15.78
2017-10-05T09:07:55.313Z,15.94
2017-10-05T09:10:23.053Z,15.88
2017-10-05T09:12:50.906Z,15.89
2017-10-05T09:15:18.622Z,16.15
2017-10-05T09:17:46.427Z,16.37
2017-10-05T09:20:14.175Z,16.17
2017-10-05T09:22:43.287Z,16.17
2017-10-05T09:25:11.017Z,16.38
2017-10-05T09:27:38.711Z,16.72
2017-10-05T09:30:06.476Z,16.66
2017-10-05T09:32:34.198Z,16.36
2017-10-05T09:35:02.003Z,16.82
2017-10-05T09:37:29.734Z,16.77
2017-10-05T09:39:57.492Z,16.78
2017-10-05T09:42:25.260Z,16.92
2017-10-05T09:44:52.969Z,17.00
2017-10-05T09:47:20.667Z,16.65
2017-10-05T09:49:49.344Z,16.84
2017-10-05T09:52:17.108Z,16.90
2017-10-05T09:54:45.267Z,17.04
2017-10-05T09:57:12.936Z,17.18
2017-10-05T09:59:40.682Z,17.64
2017-10-05T10:02:08.400Z,17.24
2017-10-05T10:04:36.121Z,17.74
2017-10-05T10:07:03.879Z,18.11
2017-10-05T10:09:32.203Z,18.54
2017-10-05T10:12:00.076Z,18.24
2017-10-05T10:14:28.422Z,18.30
2017-10-05T10:16:56.678Z,18.24
2017-10-05T10:19:25.886Z,17.89
2017-10-05T10:21:53.693Z,18.05
2017-10-05T10:24:21.595Z,18.70
2017-10-05T10:26:49.351Z,18.60
2017-10-05T10:29:17.160Z,19.07
2017-10-05T10:31:44.906Z,18.27
2017-10-05T10:34:12.703Z,18.44
2017-10-05T10:36:40.702Z,18.55
2017-10-05T10:39:08.482Z,18.42
2017-10-05T10:41:36.335Z,18.24
2017-10-05T10:44:04.133Z,18.90
2017-10-05T10:46:31.879Z,18.83
2017-10-05T10:48:59.635Z,18.88
2017-10-05T10:51:27.795Z,18.77
2017-10-05T10:53:55.555Z,18.47
2017-10-05T10:56:23.318Z,18.83
2017-10-05T10:58:51.093Z,18.38
2017-10-05T11:01:18.898Z,18.53
2017-10-05T11:03:46.625Z,18.62
2017-10-05T11:06:14.355Z,18.52
2017-10-05T11:08:42.090Z,18.48
2017-10-05T11:11:09.901Z,18.59
2017-10-05T11:13:37.596Z,18.66
2017-10-05T11:16:05.278Z,18.79
2017-10-05T11:18:33.052Z,18.94
2017-10-05T11:21:00.742Z,19.02
2017-10-05T11:23:28.675Z,19.14
2017-10-05T11:25:56.391Z,19.19
2017-10-05T11:28:24.144Z,19.13
2017-10-05T11:30:51.903Z,19.22
2017-10-05T11:33:19.711Z,19.33
2017-10-05T11:35:47.464Z,19.81
2017-10-05T11:38:15.176Z,20.59
2017-10-05T11:40:42.904Z,20.88
2017-10-05T11:43:10.674Z,21.57
2017-10-05T11:45:38.444Z,22.16
2017-10-05T11:48:06.146Z,22.53
2017-10-05T11:50:33.926Z,22.82
2017-10-05T11:53:01.616Z,23.01
2017-10-05T11:55:29.330Z,23.35
2017-10-05T11:57:57.058Z,23.45
2017-10-05T12:00:24.848Z,23.67
2017-10-05T12:02:52.587Z,23.65
2017-10-05T12:05:20.334Z,23.68
2017-10-05T12:07:48.094Z,23.66
2017-10-05T12:10:15.891Z,23.87
2017-10-05T12:12:43.629Z,23.80
2017-10-05T12:15:11.340Z,23.94
2017-10-05T12:17:39.099Z,24.18
2017-10-05T12:20:06.880Z,24.13
2017-10-05T12:22:34.554Z,24.35
2017-10-05T12:25:02.296Z,24.47
2017-10-05T12:27:30.105Z,24.48
2017-10-05T12:29:57.989Z,24.57
2017-10-05T12:32:25.708Z,24.56
2017-10-05T12:34:53.399Z,24.54
2017-10-05T12:37:21.240Z,24.66
2017-10-05T12:39:48.956Z,24.70
2017-10-05T12:42:16.783Z,24.74
2017-10-05T12:44:44.557Z,24.67
2017-10-05T12:47:12.372Z,24.65
2017-10-05T12:49:40.189Z,24.74
2017-10-05T12:52:08.440Z,24.85
2017-10-05T12:54:36.147Z,24.96
2017-10-05T12:57:04.066Z,24.79
2017-10-05T12:59:31.937Z,24.82
2017-10-05T13:02:00.025Z,25.09
2017-10-05T13:04:27.882Z,25.15
2017-10-05T13:06:55.597Z,25.11
2017-10-05T13:09:23.345Z,25.13
2017-10-05T13:11:51.176Z,24.89
2017-10-05T13:14:18.868Z,25.09
2017-10-05T13:16:46.578Z,24.89
2017-10-05T13:19:14.340Z,25.03
2017-10-05T13:21:42.085Z,24.93
2017-10-05T13:24:09.808Z,24.99
2017-10-05T13:26:37.594Z,25.04
2017-10-05T13:29:05.335Z,24.84
2017-10-05T13:31:33.173Z,25.09
2017-10-05T13:34:00.964Z,25.07
2017-10-05T13:36:28.705Z,25.02
2017-10-05T13:38:57.236Z,25.18
2017-10-05T13:41:25.112Z,25.44
2017-10-05T13:43:52.810Z,25.36
2017-10-05T13:46:20.976Z,24.94
2017-10-05T13:48:50.119Z,25.01
2017-10-05T13:51:17.825Z,24.79
2017-10-05T13:53:45.868Z,24.78
2017-10-05T13:56:13.681Z,25.02
2017-10-05T13:58:41.370Z,24.72
2017-10-05T14:01:09.135Z,24.60
2017-10-05T14:03:36.867Z,24.61
2017-10-05T14:06:05.297Z,24.63
2017-10-05T14:08:33.007Z,24.66
2017-10-05T14:11:00.744Z,24.71
2017-10-05T14:13:28.522Z,24.64
2017-10-05T14:15:56.389Z,24.61
2017-10-05T14:18:24.084Z,24.36
2017-10-05T14:20:51.807Z,24.37
2017-10-05T14:23:19.636Z,24.44
2017-10-05T14:25:48.088Z,24.22
2017-10-05T14:28:15.899Z,23.91
2017-10-05T14:30:43.604Z,24.07
2017-10-05T14:33:11.284Z,24.22
2017-10-05T14:35:39.024Z,24.11
2017-10-05T14:38:06.783Z,23.65
2017-10-05T14:40:36.265Z,22.95
2017-10-05T14:43:05.189Z,23.23
2017-10-05T14:45:33.906Z,23.26
2017-10-05T14:48:02.472Z,23.56
2017-10-05T14:50:30.241Z,22.96
2017-10-05T14:52:58.041Z,22.75
2017-10-05T14:55:28.162Z,22.57
2017-10-05T14:57:55.975Z,22.68
2017-10-05T15:00:24.672Z,22.85
2017-10-05T15:02:52.381Z,22.66
2017-10-05T15:05:20.311Z,21.82
2017-10-05T15:07:48.033Z,21.61
2017-10-05T15:10:16.767Z,21.20
2017-10-05T15:12:44.515Z,22.00
2017-10-05T15:15:12.879Z,22.40
2017-10-05T15:17:40.731Z,22.20
2017-10-05T15:20:08.505Z,21.55
2017-10-05T15:22:36.303Z,20.78
2017-10-05T15:25:04.143Z,20.69
2017-10-05T15:27:31.986Z,20.59
2017-10-05T15:29:59.729Z,20.71
2017-10-05T15:32:27.471Z,20.80
2017-10-05T15:34:55.190Z,20.35
2017-10-05T15:37:23.021Z,20.10
2017-10-05T15:39:50.789Z,20.73
2017-10-05T15:42:18.548Z,20.59
2017-10-05T15:44:46.430Z,20.37
2017-10-05T15:47:14.122Z,20.04
2017-10-05T15:49:41.851Z,20.13
2017-10-05T15:52:09.614Z,19.90
2017-10-05T15:54:37.445Z,19.76
2017-10-05T15:57:05.235Z,19.49
2017-10-05T15:59:32.950Z,19.68
2017-10-05T16:02:00.790Z,19.94
2017-10-05T16:04:28.500Z,19.63
2017-10-05T16:06:56.278Z,19.34
2017-10-05T16:09:24.098Z,19.78
2017-10-05T16:11:51.972Z,19.58
2017-10-05T16:14:19.776Z,19.24
2017-10-05T16:16:47.752Z,19.13
2017-10-05T16:19:15.536Z,18.74
2017-10-05T16:21:43.464Z,18.59
2017-10-05T16:24:11.747Z,18.54
2017-10-05T16:26:39.843Z,18.58
2017-10-05T16:29:07.970Z,18.36
2017-10-05T16:31:36.580Z,18.45
2017-10-05T16:34:04.358Z,18.30
2017-10-05T16:36:32.205Z,18.36
2017-10-05T16:38:59.976Z,18.37
2017-10-05T16:41:28.504Z,18.38
2017-10-05T16:43:57.147Z,18.40
2017-10-05T16:46:25.774Z,18.45
2017-10-05T16:48:53.651Z,19.00
2017-10-05T16:51:21.406Z,19.64
2017-10-05T16:53:50.479Z,19.48
2017-10-05T16:56:18.242Z,19.19
2017-10-05T16:58:45.948Z,18.78
2017-10-05T17:01:13.750Z,18.67
2017-10-05T17:03:41.530Z,18.85
2017-10-05T17:06:09.305Z,18.94
2017-10-05T17:08:37.017Z,18.71
2017-10-05T17:11:04.737Z,18.72
2017-10-05T17:13:32.600Z,18.74
2017-10-05T17:16:00.401Z,18.69
2017-10-05T17:18:28.109Z,18.90
2017-10-05T17:20:55.857Z,18.97
2017-10-05T17:23:23.598Z,18.74
2017-10-05T17:25:51.281Z,18.58
2017-10-05T17:28:19.042Z,18.17
2017-10-05T17:30:46.798Z,18.35
2017-10-05T17:33:14.541Z,18.31
2017-10-05T17:35:42.782Z,18.33
2017-10-05T17:38:10.575Z,18.28
2017-10-05T17:40:38.360Z,18.24
2017-10-05T17:43:06.162Z,18.12
2017-10-05T17:45:33.960Z,17.92
2017-10-05T17:48:01.770Z,17.94
2017-10-05T17:50:29.506Z,18.33
2017-10-05T17:52:57.486Z,18.66
2017-10-05T17:55:25.246Z,18.62
2017-10-05T17:57:53.000Z,18.68
2017-10-05T18:00:20.835Z,18.74
2017-10-05T18:02:48.593Z,18.71
2017-10-05T18:05:16.416Z,18.70
2017-10-05T18:07:44.707Z,18.74
2017-10-05T18:10:12.672Z,18.69
2017-10-05T18:12:40.412Z,18.45
2017-10-05T18:15:08.229Z,18.17
2017-10-05T18:17:35.947Z,17.98
2017-10-05T18:20:03.824Z,17.41
2017-10-05T18:22:31.705Z,17.38
2017-10-05T18:24:59.525Z,16.97
2017-10-05T18:27:27.380Z,16.85
2017-10-05T18:29:55.321Z,16.70
2017-10-05T18:38:07.101Z,16.14
2017-10-05T18:40:34.943Z,16.00
2017-10-05T18:43:02.644Z,15.98
2017-10-05T18:45:30.502Z,15.92
2017-10-05T18:47:58.182Z,15.84
2017-10-05T18:50:25.864Z,15.51
2017-10-05T18:52:53.653Z,15.58
2017-10-05T18:55:21.372Z,15.48
2017-10-05T18:57:49.083Z,15.64
2017-10-05T19:00:16.882Z,15.66
2017-10-05T19:02:44.626Z,15.42
2017-10-05T19:05:12.310Z,15.46
2017-10-05T19:07:40.071Z,15.11
2017-10-05T19:10:07.780Z,15.31
2017-10-05T19:12:35.587Z,14.83
2017-10-05T19:15:03.365Z,15.03
2017-10-05T19:17:31.224Z,14.71
2017-10-05T19:19:59.023Z,14.75
2017-10-05T19:22:27.407Z,14.34
2017-10-05T19:24:55.188Z,14.55
2017-10-05T19:27:22.959Z,14.47
2017-10-05T19:29:50.684Z,14.25
2017-10-05T19:32:18.473Z,14.35
2017-10-05T19:34:46.381Z,14.51
2017-10-05T19:37:14.153Z,14.18
2017-10-05T19:39:42.102Z,14.26
2017-10-05T19:42:10.115Z,14.16
2017-10-05T19:44:39.074Z,14.03
2017-10-05T19:47:06.919Z,14.03
2017-10-05T19:49:34.803Z,14.06
2017-10-05T19:52:03.633Z,14.10
2017-10-05T19:54:34.039Z,14.11
2017-10-05T19:57:02.389Z,14.16
2017-10-05T19:59:30.303Z,13.91
2017-10-05T20:01:58.133Z,13.84
2017-10-05T20:04:26.075Z,13.74
2017-10-05T20:06:53.820Z,13.78
2017-10-05T20:09:21.611Z,13.86
2017-10-05T20:26:14.840Z,13.56
2017-10-05T20:28:45.166Z,13.57
2017-10-05T20:34:21.958Z,13.65
2017-10-05T20:36:51.825Z,13.52
2017-10-05T20:39:19.573Z,13.50
2017-10-05T20:41:47.389Z,13.28
2017-10-05T20:44:15.212Z,13.20
2017-10-05T20:46:42.955Z,13.32
2017-10-05T20:49:10.753Z,13.32
2017-10-05T20:51:38.625Z,13.27
2017-10-05T20:54:06.477Z,13.20
2017-10-05T20:56:34.312Z,12.93
2017-10-05T20:59:02.057Z,12.94
2017-10-05T21:01:29.917Z,13.00
2017-10-05T21:03:57.668Z,13.14
2017-10-05T21:06:25.400Z,13.09
2017-10-05T21:08:53.172Z,12.93
2017-10-05T21:11:20.901Z,13.02
2017-10-05T21:13:48.677Z,13.19
2017-10-05T21:16:16.415Z,13.07
2017-10-05T21:18:44.199Z,13.18
2017-10-05T21:21:11.911Z,12.96
2017-10-05T21:23:39.980Z,13.13
2017-10-05T21:26:07.736Z,13.21
2017-10-05T21:28:35.441Z,13.28
2017-10-05T21:31:03.204Z,13.13
2017-10-05T21:33:30.919Z,13.09
2017-10-05T21:35:58.744Z,13.12
2017-10-05T21:38:26.597Z,13.08
2017-10-05T21:40:54.298Z,13.09
2017-10-05T21:43:21.993Z,13.11
2017-10-05T21:45:49.743Z,13.05
2017-10-05T21:48:17.439Z,13.21
2017-10-05T21:50:45.393Z,13.18
2017-10-05T21:53:13.148Z,13.03
2017-10-05T21:55:40.852Z,13.01
2017-10-05T21:58:08.646Z,12.97
2017-10-05T22:00:36.396Z,12.89
2017-10-05T22:03:04.133Z,12.98
2017-10-05T22:05:31.897Z,12.94
2017-10-05T22:07:59.588Z,12.80
2017-10-05T22:10:27.363Z,12.77
2017-10-05T22:12:55.120Z,12.86
2017-10-05T22:15:22.856Z,12.75
2017-10-05T22:17:50.562Z,12.48
2017-10-05T22:20:18.316Z,12.30
2017-10-05T22:22:46.088Z,12.16
2017-10-05T22:25:13.810Z,12.09
2017-10-05T22:27:41.501Z,11.98
2017-10-05T22:30:09.371Z,11.81
2017-10-05T22:32:37.639Z,11.87
2017-10-05T22:35:05.359Z,11.85
2017-10-05T22:37:33.242Z,11.77
2017-10-05T22:40:00.986Z,11.63
2017-10-05T22:42:29.353Z,11.66
2017-10-05T22:44:57.099Z,11.56
2017-10-05T22:47:24.793Z,11.54
2017-10-05T22:49:52.605Z,11.49
2017-10-05T22:52:20.350Z,11.34
2017-10-05T22:54:48.111Z,11.27
2017-10-05T22:57:16.813Z,11.22
2017-10-05T22:59:44.531Z,11.17
2017-10-05T23:02:12.261Z,11.19
2017-10-05T23:04:39.947Z,11.20
2017-10-05T23:07:07.796Z,11.24
2017-10-05T23:09:35.508Z,11.38
2017-10-05T23:12:03.227Z,11.33
2017-10-05T23:14:31.006Z,11.22
2017-10-05T23:16:58.781Z,11.38
2017-10-05T23:19:26.462Z,11.35
2017-10-05T23:21:54.163Z,11.35
2017-10-05T23:24:21.931Z,11.19
2017-10-05T23:26:49.633Z,11.18
2017-10-05T23:29:17.630Z,11.23
2017-10-05T23:31:46.453Z,11.22
2017-10-05T23:34:14.173Z,11.29
2017-10-05T23:36:41.986Z,11.22
2017-10-05T23:39:09.691Z,11.19
2017-10-05T23:41:37.396Z,11.03
2017-10-05T23:44:05.220Z,10.97
2017-10-05T23:46:32.917Z,11.02
2017-10-05T23:49:00.625Z,10.68
2017-10-05T23:51:28.360Z,10.62
2017-10-05T23:53:56.050Z,10.68
2017-10-05T23:56:23.916Z,10.92
2017-10-05T23:58:52.007Z,10.92
